THY854 LTAJ-LTFM
Flight info
| Callsign | THY854 |
|---|---|
| Flight time | 1h 27m |
| Altitude | 38000 |
| Route | POGEN UL605 BELSU UA17 BALAX UL605 YAVRU UA4 ERSEN |
| Aircraft | A319/M-SDE3FGHIRWY/LB1 |
Departure
| Time | 2026-05-06 17:37 |
|---|---|
| Airport | Gaziantep Oğuzeli International Airport (LTAJ) |
Arrival
| Time | 2026-05-06 19:05 |
|---|---|
| Airport | İstanbul Airport (LTFM) |
| Time | Latitude | Longitude | Altitude | Speed | Heading |
|---|---|---|---|---|---|
| 2026-05-06 16:53 | 36.94512 | 37.47765 | 2320 ft | 0 kts | 193° |
| 2026-05-06 17:23 | 36.94534 | 37.47772 | 2320 ft | 3 kts | 193° |
| 2026-05-06 17:23 | 36.94560 | 37.47779 | 2320 ft | 3 kts | 185° |
| 2026-05-06 17:24 | 36.94582 | 37.47767 | 2320 ft | 3 kts | 129° |
| 2026-05-06 17:24 | 36.94588 | 37.47750 | 2320 ft | 0 kts | 101° |
| 2026-05-06 17:30 | 36.94587 | 37.47759 | 2319 ft | 7 kts | 100° |
| 2026-05-06 17:30 | 36.94563 | 37.47875 | 2319 ft | 14 kts | 108° |
| 2026-05-06 17:30 | 36.94539 | 37.47860 | 2319 ft | 9 kts | 284° |
| 2026-05-06 17:31 | 36.94556 | 37.47776 | 2319 ft | 11 kts | 284° |
| 2026-05-06 17:31 | 36.94586 | 37.47646 | 2320 ft | 16 kts | 289° |
| 2026-05-06 17:31 | 36.94647 | 37.47539 | 2320 ft | 15 kts | 349° |
| 2026-05-06 17:31 | 36.94695 | 37.47615 | 2320 ft | 13 kts | 102° |
| 2026-05-06 17:32 | 36.94669 | 37.47732 | 2319 ft | 15 kts | 107° |
| 2026-05-06 17:32 | 36.94630 | 37.47891 | 2319 ft | 29 kts | 107° |
| 2026-05-06 17:32 | 36.94585 | 37.48085 | 2319 ft | 18 kts | 105° |
| 2026-05-06 17:32 | 36.94553 | 37.48235 | 2319 ft | 17 kts | 105° |
| 2026-05-06 17:33 | 36.94523 | 37.48374 | 2319 ft | 15 kts | 106° |
| 2026-05-06 17:33 | 36.94495 | 37.48503 | 2319 ft | 14 kts | 105° |
| 2026-05-06 17:33 | 36.94470 | 37.48623 | 2319 ft | 13 kts | 104° |
| 2026-05-06 17:33 | 36.94447 | 37.48735 | 2319 ft | 12 kts | 108° |
| 2026-05-06 17:34 | 36.94422 | 37.48840 | 2319 ft | 13 kts | 107° |
| 2026-05-06 17:34 | 36.94387 | 37.48987 | 2319 ft | 17 kts | 106° |
| 2026-05-06 17:34 | 36.94361 | 37.49107 | 2319 ft | 11 kts | 105° |
| 2026-05-06 17:34 | 36.94344 | 37.49184 | 2319 ft | 7 kts | 105° |
| 2026-05-06 17:35 | 36.94325 | 37.49271 | 2319 ft | 10 kts | 105° |
| 2026-05-06 17:35 | 36.94312 | 37.49361 | 2319 ft | 10 kts | 78° |
| 2026-05-06 17:35 | 36.94362 | 37.49411 | 2319 ft | 9 kts | 21° |
| 2026-05-06 17:36 | 36.94469 | 37.49403 | 2319 ft | 7 kts | 302° |
| 2026-05-06 17:36 | 36.94483 | 37.49358 | 2319 ft | 0 kts | 289° |
| 2026-05-06 17:36 | 36.94484 | 37.49358 | 2319 ft | 0 kts | 289° |
| 2026-05-06 17:37 | 36.94537 | 37.49123 | 2319 ft | 65 kts | 285° |
| 2026-05-06 17:37 | 36.94717 | 37.48294 | 2320 ft | 132 kts | 286° |
| 2026-05-06 17:37 | 36.95000 | 37.46966 | 2427 ft | 176 kts | 289° |
| 2026-05-06 17:37 | 36.95334 | 37.45753 | 3620 ft | 130 kts | 287° |
| 2026-05-06 17:38 | 36.95521 | 37.44637 | 4072 ft | 139 kts | 279° |
| 2026-05-06 17:38 | 36.95690 | 37.43381 | 4414 ft | 154 kts | 280° |
| 2026-05-06 17:38 | 36.95904 | 37.42022 | 4779 ft | 170 kts | 282° |
| 2026-05-06 17:38 | 36.96170 | 37.40507 | 5183 ft | 186 kts | 283° |
| 2026-05-06 17:39 | 36.96471 | 37.38873 | 5596 ft | 204 kts | 283° |
| 2026-05-06 17:39 | 36.96815 | 37.37044 | 5994 ft | 226 kts | 283° |
| 2026-05-06 17:39 | 36.97191 | 37.35062 | 6495 ft | 244 kts | 283° |
| 2026-05-06 17:39 | 36.97591 | 37.32944 | 7011 ft | 262 kts | 283° |
| 2026-05-06 17:40 | 36.98013 | 37.30660 | 7614 ft | 277 kts | 282° |
| 2026-05-06 17:40 | 36.98443 | 37.28301 | 8342 ft | 281 kts | 282° |
| 2026-05-06 17:40 | 36.98877 | 37.25914 | 8803 ft | 283 kts | 283° |
| 2026-05-06 17:40 | 36.99317 | 37.23504 | 8998 ft | 284 kts | 283° |
| 2026-05-06 17:41 | 36.99753 | 37.21114 | 9005 ft | 284 kts | 283° |
| 2026-05-06 17:41 | 37.00363 | 37.18791 | 9010 ft | 284 kts | 297° |
| 2026-05-06 17:41 | 37.01516 | 37.16746 | 9131 ft | 288 kts | 314° |
| 2026-05-06 17:41 | 37.02944 | 37.14987 | 9848 ft | 293 kts | 316° |
| 2026-05-06 17:42 | 37.04418 | 37.13244 | 10759 ft | 294 kts | 316° |
| 2026-05-06 17:42 | 37.05919 | 37.11462 | 11279 ft | 308 kts | 316° |
| 2026-05-06 17:42 | 37.07483 | 37.09586 | 11997 ft | 315 kts | 316° |
| 2026-05-06 17:42 | 37.09059 | 37.07686 | 12806 ft | 317 kts | 315° |
| 2026-05-06 17:43 | 37.10676 | 37.05751 | 13607 ft | 319 kts | 317° |
| 2026-05-06 17:43 | 37.12397 | 37.03926 | 14370 ft | 322 kts | 321° |
| 2026-05-06 17:43 | 37.14218 | 37.02234 | 15138 ft | 324 kts | 323° |
| 2026-05-06 17:43 | 37.16083 | 37.00553 | 15882 ft | 326 kts | 322° |
| 2026-05-06 17:44 | 37.17979 | 36.98846 | 16629 ft | 328 kts | 322° |
| 2026-05-06 17:44 | 37.19847 | 36.97160 | 17334 ft | 330 kts | 322° |
| 2026-05-06 17:44 | 37.21753 | 36.95436 | 18042 ft | 332 kts | 322° |
| 2026-05-06 17:44 | 37.23644 | 36.93722 | 18732 ft | 335 kts | 321° |
| 2026-05-06 17:45 | 37.25517 | 36.92022 | 19396 ft | 337 kts | 321° |
| 2026-05-06 17:45 | 37.27428 | 36.90284 | 20040 ft | 340 kts | 321° |
| 2026-05-06 17:45 | 37.29372 | 36.88517 | 20687 ft | 342 kts | 321° |
| 2026-05-06 17:45 | 37.31292 | 36.86769 | 21303 ft | 345 kts | 321° |
| 2026-05-06 17:46 | 37.33234 | 36.85000 | 21835 ft | 347 kts | 321° |
| 2026-05-06 17:46 | 37.35232 | 36.83178 | 22081 ft | 347 kts | 322° |
| 2026-05-06 17:46 | 37.37220 | 36.81426 | 22306 ft | 348 kts | 323° |
| 2026-05-06 17:46 | 37.39223 | 36.79740 | 22852 ft | 348 kts | 322° |
| 2026-05-06 17:47 | 37.41195 | 36.77942 | 22925 ft | 349 kts | 320° |
| 2026-05-06 17:47 | 37.43124 | 36.76083 | 22919 ft | 347 kts | 320° |
| 2026-05-06 17:47 | 37.45076 | 36.74237 | 22872 ft | 347 kts | 320° |
| 2026-05-06 17:47 | 37.47020 | 36.72432 | 22967 ft | 353 kts | 321° |
| 2026-05-06 17:48 | 37.48976 | 36.70542 | 23536 ft | 354 kts | 317° |
| 2026-05-06 17:48 | 37.50825 | 36.68490 | 24102 ft | 354 kts | 314° |
| 2026-05-06 17:48 | 37.52541 | 36.66279 | 24625 ft | 356 kts | 310° |
| 2026-05-06 17:48 | 37.54211 | 36.63948 | 25136 ft | 358 kts | 309° |
| 2026-05-06 17:49 | 37.55876 | 36.61596 | 25626 ft | 361 kts | 309° |
| 2026-05-06 17:49 | 37.57538 | 36.59244 | 26106 ft | 363 kts | 309° |
| 2026-05-06 17:49 | 37.59228 | 36.56853 | 26577 ft | 366 kts | 309° |
| 2026-05-06 17:49 | 37.60931 | 36.54444 | 27022 ft | 369 kts | 309° |
| 2026-05-06 17:50 | 37.62632 | 36.52036 | 27482 ft | 371 kts | 309° |
| 2026-05-06 17:50 | 37.64350 | 36.49607 | 27931 ft | 373 kts | 309° |
| 2026-05-06 17:50 | 37.66097 | 36.47134 | 28378 ft | 374 kts | 309° |
| 2026-05-06 17:50 | 37.67818 | 36.44698 | 28785 ft | 377 kts | 309° |
| 2026-05-06 17:51 | 37.69561 | 36.42227 | 29176 ft | 379 kts | 309° |
| 2026-05-06 17:51 | 37.71325 | 36.39724 | 29587 ft | 381 kts | 309° |
| 2026-05-06 17:51 | 37.73103 | 36.37199 | 29988 ft | 383 kts | 309° |
| 2026-05-06 17:51 | 37.74864 | 36.34699 | 30353 ft | 385 kts | 309° |
| 2026-05-06 17:52 | 37.76660 | 36.32136 | 30718 ft | 387 kts | 308° |
| 2026-05-06 17:52 | 37.78437 | 36.29598 | 31041 ft | 390 kts | 308° |
| 2026-05-06 17:52 | 37.80242 | 36.27021 | 31346 ft | 393 kts | 308° |
| 2026-05-06 17:52 | 37.82074 | 36.24408 | 31667 ft | 395 kts | 308° |
| 2026-05-06 17:53 | 37.83875 | 36.21838 | 31977 ft | 397 kts | 309° |
| 2026-05-06 17:53 | 37.85727 | 36.19203 | 32280 ft | 400 kts | 309° |
| 2026-05-06 17:53 | 37.87589 | 36.16558 | 32655 ft | 400 kts | 309° |
| 2026-05-06 17:53 | 37.89431 | 36.13940 | 33078 ft | 399 kts | 309° |
| 2026-05-06 17:54 | 37.91272 | 36.11319 | 33455 ft | 398 kts | 308° |
| 2026-05-06 17:54 | 37.93110 | 36.08696 | 33822 ft | 398 kts | 308° |
| 2026-05-06 17:54 | 37.94957 | 36.06058 | 34166 ft | 398 kts | 308° |
| 2026-05-06 17:54 | 37.96798 | 36.03424 | 34430 ft | 399 kts | 309° |
| 2026-05-06 17:55 | 37.98619 | 36.00816 | 34687 ft | 399 kts | 309° |
| 2026-05-06 17:55 | 38.00451 | 35.98192 | 34949 ft | 398 kts | 309° |
| 2026-05-06 17:55 | 38.02303 | 35.95539 | 35196 ft | 398 kts | 309° |
| 2026-05-06 17:55 | 38.04140 | 35.92905 | 35425 ft | 399 kts | 309° |
| 2026-05-06 17:56 | 38.05972 | 35.90272 | 35659 ft | 399 kts | 309° |
| 2026-05-06 17:56 | 38.07811 | 35.87630 | 35936 ft | 399 kts | 309° |
| 2026-05-06 17:56 | 38.09634 | 35.85007 | 36199 ft | 400 kts | 309° |
| 2026-05-06 17:56 | 38.11487 | 35.82348 | 36443 ft | 401 kts | 309° |
| 2026-05-06 17:57 | 38.13335 | 35.79705 | 36645 ft | 403 kts | 309° |
| 2026-05-06 17:57 | 38.15204 | 35.77027 | 36827 ft | 405 kts | 309° |
| 2026-05-06 17:57 | 38.17068 | 35.74353 | 37015 ft | 407 kts | 309° |
| 2026-05-06 17:57 | 38.18951 | 35.71645 | 37223 ft | 408 kts | 309° |
| 2026-05-06 17:58 | 38.20832 | 35.68936 | 37417 ft | 409 kts | 309° |
| 2026-05-06 17:58 | 38.22709 | 35.66225 | 37605 ft | 410 kts | 309° |
| 2026-05-06 17:58 | 38.24596 | 35.63497 | 37789 ft | 412 kts | 310° |
| 2026-05-06 17:58 | 38.26498 | 35.60742 | 37974 ft | 412 kts | 309° |
| 2026-05-06 17:59 | 38.28382 | 35.58014 | 38093 ft | 414 kts | 310° |
| 2026-05-06 17:59 | 38.30283 | 35.55255 | 38103 ft | 414 kts | 310° |
| 2026-05-06 17:59 | 38.34069 | 35.49752 | 38100 ft | 415 kts | 310° |
| 2026-05-06 18:00 | 38.37880 | 35.44203 | 38098 ft | 418 kts | 310° |
| 2026-05-06 18:00 | 38.41741 | 35.38569 | 38109 ft | 427 kts | 310° |
| 2026-05-06 18:01 | 38.45679 | 35.32798 | 38115 ft | 435 kts | 309° |
| 2026-05-06 18:01 | 38.49641 | 35.26965 | 38124 ft | 438 kts | 309° |
| 2026-05-06 18:02 | 38.53654 | 35.21050 | 38120 ft | 439 kts | 309° |
| 2026-05-06 18:02 | 38.57582 | 35.15133 | 38124 ft | 439 kts | 309° |
| 2026-05-06 18:03 | 38.61537 | 35.09149 | 38134 ft | 439 kts | 309° |
| 2026-05-06 18:03 | 38.65477 | 35.03175 | 38134 ft | 439 kts | 309° |
| 2026-05-06 18:04 | 38.69389 | 34.97237 | 38137 ft | 439 kts | 309° |
| 2026-05-06 18:04 | 38.73312 | 34.91271 | 38127 ft | 439 kts | 309° |
| 2026-05-06 18:05 | 38.77255 | 34.85263 | 38127 ft | 439 kts | 309° |
| 2026-05-06 18:05 | 38.81162 | 34.79300 | 38126 ft | 439 kts | 309° |
| 2026-05-06 18:06 | 38.85097 | 34.73285 | 38131 ft | 439 kts | 309° |
| 2026-05-06 18:06 | 38.89008 | 34.67289 | 38122 ft | 438 kts | 309° |
| 2026-05-06 18:07 | 38.92918 | 34.61284 | 38117 ft | 438 kts | 309° |
| 2026-05-06 18:07 | 38.96817 | 34.55290 | 38119 ft | 437 kts | 309° |
| 2026-05-06 18:08 | 39.00730 | 34.49256 | 38116 ft | 437 kts | 309° |
| 2026-05-06 18:08 | 39.04604 | 34.43271 | 38115 ft | 438 kts | 309° |
| 2026-05-06 18:09 | 39.08525 | 34.37168 | 38114 ft | 439 kts | 308° |
| 2026-05-06 18:09 | 39.12131 | 34.30869 | 38112 ft | 438 kts | 305° |
| 2026-05-06 18:10 | 39.15731 | 34.24530 | 38114 ft | 438 kts | 308° |
| 2026-05-06 18:10 | 39.19597 | 34.18528 | 38110 ft | 437 kts | 309° |
| 2026-05-06 18:11 | 39.23532 | 34.12499 | 38107 ft | 438 kts | 309° |
| 2026-05-06 18:11 | 39.27433 | 34.06502 | 38103 ft | 438 kts | 309° |
| 2026-05-06 18:12 | 39.31350 | 34.00463 | 38098 ft | 439 kts | 309° |
| 2026-05-06 18:12 | 39.35248 | 33.94437 | 38103 ft | 439 kts | 310° |
| 2026-05-06 18:13 | 39.39193 | 33.88325 | 38105 ft | 439 kts | 310° |
| 2026-05-06 18:13 | 39.43094 | 33.82267 | 38103 ft | 439 kts | 310° |
| 2026-05-06 18:14 | 39.46988 | 33.76189 | 38105 ft | 439 kts | 309° |
| 2026-05-06 18:14 | 39.50809 | 33.70033 | 38105 ft | 439 kts | 309° |
| 2026-05-06 18:15 | 39.54634 | 33.63852 | 38105 ft | 439 kts | 309° |
| 2026-05-06 18:15 | 39.58467 | 33.57663 | 38102 ft | 438 kts | 309° |
| 2026-05-06 18:16 | 39.62376 | 33.51562 | 38107 ft | 437 kts | 310° |
| 2026-05-06 18:16 | 39.66239 | 33.45552 | 38105 ft | 438 kts | 310° |
| 2026-05-06 18:17 | 39.70148 | 33.39436 | 38108 ft | 439 kts | 310° |
| 2026-05-06 18:17 | 39.74050 | 33.33308 | 38102 ft | 438 kts | 309° |
| 2026-05-06 18:18 | 39.77926 | 33.27179 | 38106 ft | 438 kts | 309° |
| 2026-05-06 18:18 | 39.81788 | 33.21075 | 38111 ft | 439 kts | 309° |
| 2026-05-06 18:19 | 39.85670 | 33.14937 | 38106 ft | 439 kts | 309° |
| 2026-05-06 18:19 | 39.89525 | 33.08833 | 38109 ft | 439 kts | 309° |
| 2026-05-06 18:20 | 39.93413 | 33.02665 | 38107 ft | 439 kts | 310° |
| 2026-05-06 18:20 | 39.97300 | 32.96483 | 38110 ft | 438 kts | 310° |
| 2026-05-06 18:21 | 40.01171 | 32.90319 | 38109 ft | 437 kts | 310° |
| 2026-05-06 18:21 | 40.05078 | 32.84083 | 38109 ft | 438 kts | 310° |
| 2026-05-06 18:22 | 40.08763 | 32.77710 | 38111 ft | 438 kts | 306° |
| 2026-05-06 18:22 | 40.12248 | 32.71195 | 38119 ft | 438 kts | 306° |
| 2026-05-06 18:23 | 40.15724 | 32.64682 | 38110 ft | 437 kts | 306° |
| 2026-05-06 18:23 | 40.19190 | 32.58154 | 38108 ft | 437 kts | 306° |
| 2026-05-06 18:24 | 40.22643 | 32.51624 | 38099 ft | 437 kts | 306° |
| 2026-05-06 18:24 | 40.26072 | 32.45122 | 38099 ft | 438 kts | 306° |
| 2026-05-06 18:25 | 40.29514 | 32.38577 | 38110 ft | 438 kts | 306° |
| 2026-05-06 18:25 | 40.32967 | 32.31987 | 38095 ft | 438 kts | 306° |
| 2026-05-06 18:26 | 40.36386 | 32.25429 | 38101 ft | 437 kts | 306° |
| 2026-05-06 18:26 | 40.39820 | 32.18848 | 38103 ft | 437 kts | 306° |
| 2026-05-06 18:27 | 40.43241 | 32.12292 | 38098 ft | 438 kts | 306° |
| 2026-05-06 18:27 | 40.46662 | 32.05706 | 38099 ft | 437 kts | 306° |
| 2026-05-06 18:28 | 40.50079 | 31.99104 | 38093 ft | 438 kts | 306° |
| 2026-05-06 18:28 | 40.53484 | 31.92513 | 38095 ft | 438 kts | 306° |
| 2026-05-06 18:29 | 40.56598 | 31.85786 | 38107 ft | 420 kts | 300° |
| 2026-05-06 18:29 | 40.59093 | 31.78949 | 37945 ft | 417 kts | 295° |
| 2026-05-06 18:30 | 40.60141 | 31.75431 | 37702 ft | 415 kts | 292° |
| 2026-05-06 18:30 | 40.61069 | 31.71857 | 37465 ft | 413 kts | 291° |
| 2026-05-06 18:30 | 40.61960 | 31.68268 | 37232 ft | 410 kts | 291° |
| 2026-05-06 18:30 | 40.62827 | 31.64749 | 37002 ft | 408 kts | 291° |
| 2026-05-06 18:31 | 40.63707 | 31.61178 | 36765 ft | 406 kts | 291° |
| 2026-05-06 18:31 | 40.64578 | 31.57643 | 36513 ft | 406 kts | 291° |
| 2026-05-06 18:31 | 40.65437 | 31.54150 | 36283 ft | 406 kts | 291° |
| 2026-05-06 18:31 | 40.66299 | 31.50641 | 36050 ft | 406 kts | 291° |
| 2026-05-06 18:32 | 40.67173 | 31.47082 | 35851 ft | 406 kts | 291° |
| 2026-05-06 18:32 | 40.68031 | 31.43584 | 35650 ft | 406 kts | 291° |
| 2026-05-06 18:32 | 40.68895 | 31.40059 | 35446 ft | 406 kts | 291° |
| 2026-05-06 18:32 | 40.69764 | 31.36501 | 35242 ft | 406 kts | 291° |
| 2026-05-06 18:33 | 40.70618 | 31.32999 | 35036 ft | 406 kts | 291° |
| 2026-05-06 18:33 | 40.71482 | 31.29433 | 34824 ft | 406 kts | 291° |
| 2026-05-06 18:33 | 40.72338 | 31.25898 | 34617 ft | 406 kts | 291° |
| 2026-05-06 18:33 | 40.73186 | 31.22394 | 34406 ft | 406 kts | 291° |
| 2026-05-06 18:34 | 40.74048 | 31.18835 | 34176 ft | 406 kts | 291° |
| 2026-05-06 18:34 | 40.74902 | 31.15308 | 33927 ft | 407 kts | 291° |
| 2026-05-06 18:34 | 40.75759 | 31.11770 | 33578 ft | 408 kts | 291° |
| 2026-05-06 18:34 | 40.76621 | 31.08201 | 33099 ft | 410 kts | 291° |
| 2026-05-06 18:35 | 40.77486 | 31.04615 | 32493 ft | 411 kts | 291° |
| 2026-05-06 18:35 | 40.78346 | 31.01041 | 31835 ft | 413 kts | 291° |
| 2026-05-06 18:35 | 40.79209 | 30.97452 | 31311 ft | 411 kts | 291° |
| 2026-05-06 18:35 | 40.80054 | 30.93923 | 30816 ft | 408 kts | 291° |
| 2026-05-06 18:36 | 40.80903 | 30.90373 | 30324 ft | 405 kts | 291° |
| 2026-05-06 18:36 | 40.81750 | 30.86833 | 29808 ft | 402 kts | 291° |
| 2026-05-06 18:36 | 40.82582 | 30.83349 | 29356 ft | 397 kts | 291° |
| 2026-05-06 18:36 | 40.83400 | 30.79913 | 28929 ft | 392 kts | 291° |
| 2026-05-06 18:37 | 40.84205 | 30.76525 | 28484 ft | 388 kts | 291° |
| 2026-05-06 18:37 | 40.85006 | 30.73159 | 28060 ft | 384 kts | 291° |
| 2026-05-06 18:37 | 40.85770 | 30.69816 | 27622 ft | 381 kts | 289° |
| 2026-05-06 18:37 | 40.86402 | 30.66438 | 27176 ft | 379 kts | 286° |
| 2026-05-06 18:38 | 40.86887 | 30.63051 | 26731 ft | 377 kts | 283° |
| 2026-05-06 18:38 | 40.87249 | 30.59643 | 26288 ft | 375 kts | 282° |
| 2026-05-06 18:38 | 40.87584 | 30.56222 | 25851 ft | 372 kts | 281° |
| 2026-05-06 18:38 | 40.87911 | 30.52863 | 25421 ft | 369 kts | 281° |
| 2026-05-06 18:39 | 40.88251 | 30.49501 | 25134 ft | 376 kts | 284° |
| 2026-05-06 18:39 | 40.88980 | 30.46182 | 25093 ft | 376 kts | 296° |
| 2026-05-06 18:39 | 40.90239 | 30.43187 | 25090 ft | 374 kts | 309° |
| 2026-05-06 18:40 | 40.93615 | 30.38007 | 25092 ft | 372 kts | 315° |
| 2026-05-06 18:40 | 40.95346 | 30.35470 | 25091 ft | 372 kts | 314° |
| 2026-05-06 18:40 | 40.97058 | 30.32938 | 25089 ft | 373 kts | 314° |
| 2026-05-06 18:40 | 40.98775 | 30.30378 | 25015 ft | 371 kts | 314° |
| 2026-05-06 18:41 | 41.00495 | 30.27813 | 24364 ft | 374 kts | 314° |
| 2026-05-06 18:41 | 41.02232 | 30.25222 | 23451 ft | 382 kts | 314° |
| 2026-05-06 18:41 | 41.03976 | 30.22620 | 22912 ft | 379 kts | 314° |
| 2026-05-06 18:41 | 41.05702 | 30.20034 | 22526 ft | 373 kts | 312° |
| 2026-05-06 18:42 | 41.07059 | 30.17095 | 22065 ft | 375 kts | 291° |
| 2026-05-06 18:42 | 41.07336 | 30.13692 | 21691 ft | 377 kts | 265° |
| 2026-05-06 18:42 | 41.06479 | 30.10460 | 21337 ft | 378 kts | 239° |
| 2026-05-06 18:42 | 41.04697 | 30.07918 | 21019 ft | 376 kts | 221° |
| 2026-05-06 18:43 | 41.02649 | 30.05811 | 20689 ft | 372 kts | 219° |
| 2026-05-06 18:43 | 41.00632 | 30.03736 | 20365 ft | 366 kts | 220° |
| 2026-05-06 18:43 | 40.98689 | 30.01615 | 20053 ft | 361 kts | 222° |
| 2026-05-06 18:43 | 40.96802 | 29.99470 | 19744 ft | 356 kts | 223° |
| 2026-05-06 18:44 | 40.94942 | 29.97324 | 19431 ft | 351 kts | 223° |
| 2026-05-06 18:44 | 40.93133 | 29.95227 | 19137 ft | 346 kts | 224° |
| 2026-05-06 18:44 | 40.91328 | 29.93134 | 18827 ft | 342 kts | 224° |
| 2026-05-06 18:44 | 40.89539 | 29.91058 | 18479 ft | 340 kts | 224° |
| 2026-05-06 18:45 | 40.87831 | 29.88932 | 18119 ft | 336 kts | 234° |
| 2026-05-06 18:45 | 40.86834 | 29.86259 | 17739 ft | 324 kts | 263° |
| 2026-05-06 18:45 | 40.86703 | 29.83379 | 17438 ft | 315 kts | 274° |
| 2026-05-06 18:45 | 40.86724 | 29.80481 | 17038 ft | 316 kts | 274° |
| 2026-05-06 18:46 | 40.86729 | 29.77585 | 16649 ft | 315 kts | 274° |
| 2026-05-06 18:46 | 40.86715 | 29.74703 | 16310 ft | 313 kts | 273° |
| 2026-05-06 18:46 | 40.86687 | 29.71846 | 15970 ft | 311 kts | 273° |
| 2026-05-06 18:46 | 40.86653 | 29.69050 | 15619 ft | 309 kts | 273° |
| 2026-05-06 18:47 | 40.86623 | 29.66208 | 15280 ft | 306 kts | 274° |
| 2026-05-06 18:47 | 40.86721 | 29.63422 | 14942 ft | 302 kts | 279° |
| 2026-05-06 18:47 | 40.86970 | 29.60714 | 14589 ft | 300 kts | 281° |
| 2026-05-06 18:47 | 40.87255 | 29.57984 | 14231 ft | 299 kts | 282° |
| 2026-05-06 18:48 | 40.87539 | 29.55292 | 13899 ft | 297 kts | 282° |
| 2026-05-06 18:48 | 40.87822 | 29.52604 | 13569 ft | 295 kts | 282° |
| 2026-05-06 18:48 | 40.88147 | 29.49954 | 13228 ft | 290 kts | 290° |
| 2026-05-06 18:48 | 40.89135 | 29.47748 | 12987 ft | 275 kts | 321° |
| 2026-05-06 18:49 | 40.90810 | 29.46686 | 12787 ft | 265 kts | 352° |
| 2026-05-06 18:49 | 40.92627 | 29.46587 | 12607 ft | 259 kts | 358° |
| 2026-05-06 18:49 | 40.94423 | 29.46542 | 12360 ft | 256 kts | 358° |
| 2026-05-06 18:49 | 40.96190 | 29.46455 | 12056 ft | 254 kts | 355° |
| 2026-05-06 18:50 | 40.97948 | 29.46131 | 11730 ft | 254 kts | 347° |
| 2026-05-06 18:50 | 40.99650 | 29.45510 | 11410 ft | 253 kts | 343° |
| 2026-05-06 18:50 | 41.01301 | 29.44799 | 11079 ft | 254 kts | 339° |
| 2026-05-06 18:50 | 41.02749 | 29.43423 | 10639 ft | 261 kts | 307° |
| 2026-05-06 18:51 | 41.03427 | 29.41209 | 10292 ft | 267 kts | 281° |
| 2026-05-06 18:51 | 41.03285 | 29.38763 | 9949 ft | 274 kts | 255° |
| 2026-05-06 18:51 | 41.02563 | 29.36438 | 9659 ft | 273 kts | 250° |
| 2026-05-06 18:51 | 41.01786 | 29.34139 | 9376 ft | 271 kts | 250° |
| 2026-05-06 18:52 | 41.01030 | 29.31861 | 9100 ft | 269 kts | 250° |
| 2026-05-06 18:52 | 41.00291 | 29.29591 | 8809 ft | 267 kts | 250° |
| 2026-05-06 18:52 | 40.99562 | 29.27335 | 8536 ft | 265 kts | 251° |
| 2026-05-06 18:52 | 40.98844 | 29.25096 | 8262 ft | 263 kts | 251° |
| 2026-05-06 18:53 | 40.98137 | 29.22885 | 7992 ft | 262 kts | 251° |
| 2026-05-06 18:53 | 40.97436 | 29.20681 | 7721 ft | 260 kts | 251° |
| 2026-05-06 18:53 | 40.96731 | 29.18468 | 7445 ft | 259 kts | 251° |
| 2026-05-06 18:53 | 40.96036 | 29.16292 | 7167 ft | 258 kts | 252° |
| 2026-05-06 18:54 | 40.95345 | 29.14129 | 6901 ft | 256 kts | 252° |
| 2026-05-06 18:54 | 40.94651 | 29.11957 | 6632 ft | 255 kts | 252° |
| 2026-05-06 18:54 | 40.93959 | 29.09798 | 6363 ft | 254 kts | 252° |
| 2026-05-06 18:54 | 40.93274 | 29.07659 | 6098 ft | 253 kts | 252° |
| 2026-05-06 18:55 | 40.92589 | 29.05515 | 5829 ft | 251 kts | 252° |
| 2026-05-06 18:55 | 40.91915 | 29.03405 | 5564 ft | 250 kts | 251° |
| 2026-05-06 18:55 | 40.91326 | 29.01264 | 5381 ft | 241 kts | 263° |
| 2026-05-06 18:55 | 40.91251 | 28.99126 | 5189 ft | 231 kts | 279° |
| 2026-05-06 18:56 | 40.91431 | 28.97011 | 4927 ft | 230 kts | 281° |
| 2026-05-06 18:56 | 40.91640 | 28.94906 | 4671 ft | 230 kts | 280° |
| 2026-05-06 18:56 | 40.91841 | 28.92820 | 4423 ft | 231 kts | 280° |
| 2026-05-06 18:56 | 40.92033 | 28.90732 | 4174 ft | 231 kts | 279° |
| 2026-05-06 18:57 | 40.92221 | 28.88624 | 4005 ft | 226 kts | 279° |
| 2026-05-06 18:57 | 40.92400 | 28.86570 | 4000 ft | 225 kts | 279° |
| 2026-05-06 18:57 | 40.92579 | 28.84506 | 3994 ft | 225 kts | 279° |
| 2026-05-06 18:57 | 40.92757 | 28.82456 | 3991 ft | 225 kts | 279° |
| 2026-05-06 18:58 | 40.92980 | 28.80403 | 3987 ft | 224 kts | 289° |
| 2026-05-06 18:58 | 40.93796 | 28.78817 | 3966 ft | 210 kts | 326° |
| 2026-05-06 18:58 | 40.95075 | 28.77865 | 4002 ft | 210 kts | 332° |
| 2026-05-06 18:58 | 40.96359 | 28.76924 | 3996 ft | 210 kts | 330° |
| 2026-05-06 18:59 | 40.97661 | 28.76072 | 3987 ft | 210 kts | 344° |
| 2026-05-06 18:59 | 40.99129 | 28.75884 | 3997 ft | 211 kts | 0° |
| 2026-05-06 18:59 | 41.00600 | 28.75970 | 3995 ft | 212 kts | 1° |
| 2026-05-06 18:59 | 41.02067 | 28.76045 | 3994 ft | 211 kts | 0° |
| 2026-05-06 19:00 | 41.03544 | 28.76074 | 3993 ft | 211 kts | 359° |
| 2026-05-06 19:00 | 41.05017 | 28.76074 | 3992 ft | 211 kts | 358° |
| 2026-05-06 19:00 | 41.06475 | 28.76056 | 3990 ft | 211 kts | 358° |
| 2026-05-06 19:00 | 41.07947 | 28.76029 | 3862 ft | 209 kts | 358° |
| 2026-05-06 19:01 | 41.09395 | 28.76000 | 3679 ft | 205 kts | 358° |
| 2026-05-06 19:01 | 41.10824 | 28.75971 | 3395 ft | 206 kts | 358° |
| 2026-05-06 19:01 | 41.12271 | 28.75942 | 3094 ft | 205 kts | 358° |
| 2026-05-06 19:01 | 41.13672 | 28.75915 | 2809 ft | 198 kts | 359° |
| 2026-05-06 19:02 | 41.15031 | 28.75888 | 2566 ft | 194 kts | 359° |
| 2026-05-06 19:02 | 41.16337 | 28.75863 | 2315 ft | 182 kts | 359° |
| 2026-05-06 19:02 | 41.17561 | 28.75839 | 2095 ft | 168 kts | 0° |
| 2026-05-06 19:02 | 41.18692 | 28.75815 | 1849 ft | 157 kts | 0° |
| 2026-05-06 19:03 | 41.19747 | 28.75793 | 1622 ft | 145 kts | 1° |
| 2026-05-06 19:03 | 41.20723 | 28.75774 | 1421 ft | 140 kts | 1° |
| 2026-05-06 19:03 | 41.21703 | 28.75755 | 1240 ft | 140 kts | 1° |
| 2026-05-06 19:03 | 41.22667 | 28.75737 | 1056 ft | 138 kts | 1° |
| 2026-05-06 19:04 | 41.23620 | 28.75730 | 891 ft | 137 kts | 2° |
| 2026-05-06 19:04 | 41.24585 | 28.75729 | 731 ft | 138 kts | 1° |
| 2026-05-06 19:04 | 41.25535 | 28.75705 | 521 ft | 136 kts | 0° |
| 2026-05-06 19:04 | 41.26481 | 28.75668 | 360 ft | 136 kts | 1° |
| 2026-05-06 19:05 | 41.27419 | 28.75671 | 335 ft | 135 kts | 1° |
| 2026-05-06 19:05 | 41.28296 | 28.75635 | 334 ft | 105 kts | 358° |
| 2026-05-06 19:05 | 41.28844 | 28.75619 | 334 ft | 40 kts | 0° |
| 2026-05-06 19:05 | 41.28972 | 28.75545 | 334 ft | 17 kts | 278° |
| 2026-05-06 19:06 | 41.28971 | 28.75445 | 334 ft | 12 kts | 265° |
| 2026-05-06 19:06 | 41.28934 | 28.75342 | 334 ft | 13 kts | 194° |
| 2026-05-06 19:06 | 41.28837 | 28.75335 | 334 ft | 14 kts | 180° |
| 2026-05-06 19:06 | 41.28731 | 28.75336 | 334 ft | 15 kts | 180° |
| 2026-05-06 19:07 | 41.28618 | 28.75342 | 334 ft | 16 kts | 178° |
| 2026-05-06 19:07 | 41.28493 | 28.75343 | 334 ft | 18 kts | 180° |
| 2026-05-06 19:07 | 41.28361 | 28.75346 | 334 ft | 19 kts | 179° |
| 2026-05-06 19:07 | 41.28223 | 28.75350 | 334 ft | 21 kts | 179° |
| 2026-05-06 19:08 | 41.28077 | 28.75354 | 334 ft | 20 kts | 179° |
| 2026-05-06 19:08 | 41.27931 | 28.75356 | 334 ft | 21 kts | 180° |
| 2026-05-06 19:08 | 41.27782 | 28.75360 | 334 ft | 21 kts | 179° |
| 2026-05-06 19:08 | 41.27649 | 28.75362 | 334 ft | 18 kts | 181° |
| 2026-05-06 19:09 | 41.27521 | 28.75362 | 334 ft | 18 kts | 180° |
| 2026-05-06 19:09 | 41.27385 | 28.75364 | 334 ft | 19 kts | 179° |
| 2026-05-06 19:09 | 41.27246 | 28.75369 | 334 ft | 20 kts | 179° |
| 2026-05-06 19:09 | 41.27104 | 28.75370 | 334 ft | 20 kts | 180° |
| 2026-05-06 19:10 | 41.26960 | 28.75372 | 334 ft | 21 kts | 179° |
| 2026-05-06 19:10 | 41.26812 | 28.75374 | 334 ft | 21 kts | 178° |
| 2026-05-06 19:10 | 41.26683 | 28.75378 | 334 ft | 18 kts | 180° |
| 2026-05-06 19:10 | 41.26552 | 28.75379 | 334 ft | 19 kts | 179° |
| 2026-05-06 19:11 | 41.26416 | 28.75383 | 334 ft | 19 kts | 179° |
| 2026-05-06 19:11 | 41.26280 | 28.75385 | 334 ft | 17 kts | 180° |
| 2026-05-06 19:11 | 41.26153 | 28.75387 | 334 ft | 18 kts | 179° |
| 2026-05-06 19:11 | 41.26022 | 28.75389 | 333 ft | 19 kts | 179° |
| 2026-05-06 19:12 | 41.25883 | 28.75393 | 333 ft | 20 kts | 180° |
| 2026-05-06 19:12 | 41.25745 | 28.75395 | 334 ft | 17 kts | 179° |
| 2026-05-06 19:12 | 41.25655 | 28.75384 | 334 ft | 10 kts | 221° |
| 2026-05-06 19:12 | 41.25635 | 28.75299 | 334 ft | 10 kts | 269° |
| 2026-05-06 19:13 | 41.25634 | 28.75191 | 333 ft | 12 kts | 269° |
| 2026-05-06 19:13 | 41.25632 | 28.75090 | 334 ft | 10 kts | 269° |
| 2026-05-06 19:13 | 41.25647 | 28.75033 | 334 ft | 6 kts | 328° |
| 2026-05-06 19:13 | 41.25702 | 28.75028 | 334 ft | 8 kts | 0° |
| 2026-05-06 19:14 | 41.25735 | 28.75028 | 334 ft | 2 kts | 0° |